Airfield :
LOGIN :

Register | Disclaimer

   EN    FR    IT 

 










Legend :    VFR   Marginal VFR   IFR   Intensive IFR   Very Intensive IFR
Visi :
Ceiling :
>= 8 km
>= 3000ft
5 to 8 km
1000 to 3000 ft
1500m to 5 km
500 to 1000 ft
800 to 1500m
200 to 500 ft
< 800m
< 200 ft
Symbols :   Thunderstorms  Fog  Heavy snow  Heavy precipitations  Wind > 20 kt
SIGMETs :     Misc.  Thunderstorms  Icing  Turbulence  Mountain Waves  Volcanic Ashes






- Airport Elevation : 287 ft
- IATA code : TOE


DTTZ - Nefta - Tozeur

CURRENT METAR :
  • 271600Z 14005KT 110V200 CAVOK 35/05 Q1014

EXPIRED METARs :
  • 271500Z VRB04KT CAVOK 34/05 Q1014
  • 271400Z 08006KT 030V110 CAVOK 34/06 Q1015
  • 271300Z VRB04KT CAVOK 34/05 Q1016
  • 271200Z 12006KT 050V180 CAVOK 32/07 Q1016

TAF TAF DTTZ
Valid from the 27 at 12:00 until the 28 at 12:00 UTC


271100Z 2712/2812 11010KT CAVOK
BECMG 2716/2718 16005KT
BECMG 2719/2721 10015KT



MET'MAP, your aeronautical weather chart ! - Copyright ORBIFLY December 2007 - Disclaimer

ORBIFLY MET'MAP TEAM :

Programming & Development : Alexandra Zaïnal
Original concept : Baudouin d'Aumeries
Technical & hardware support : Manuel Goepfert
Assistance : Marc-Olivier Méhu




SOURCES & CREDITS :

   NOAA